Time;durP1;ratioP1;P1;durP2;ratioP2;P2;SDS_P1;SDS_P2;PMS_P1;PMS_P2;Temp;Humidity;BMP_temperature;BMP_pressure;BME280_temperature;BME280_humidity;BME280_pressure;Samples;Min_cycle;Max_cycle;Signal;HPM_P1;HPM_P2
2022/09/11 00:01:27;;;;;;;3.25;1.38;;;;;;;;;;5012760;28;20081;-68
2022/09/11 00:03:55;;;;;;;2.95;1.27;;;;;;;;;;5012613;28;20107;-68
2022/09/11 00:06:22;;;;;;;3.92;1.30;;;;;;;;;;5013471;28;20045;-68
2022/09/11 00:09:00;;;;;;;2.83;1.38;;;;;;;;;;5018729;28;20081;-68
2022/09/11 00:11:29;;;;;;;2.63;1.10;;;;;;;;;;5020725;28;20563;-68
2022/09/11 00:13:57;;;;;;;2.20;1.10;;;;;;;;;;5012747;28;20077;-68
2022/09/11 00:16:35;;;;;;;1.13;1.02;;;;;;;;;;5013172;28;20050;-68
2022/09/11 00:19:07;;;;;;;2.08;1.10;;;;;;;;;;5012749;28;20303;-68
2022/09/11 00:21:33;;;;;;;2.15;1.02;;;;;;;;;;5012614;28;20557;-68
2022/09/11 00:24:01;;;;;;;0.98;0.98;;;;;;;;;;5012596;28;20108;-69
2022/09/11 00:26:27;;;;;;;2.60;1.08;;;;;;;;;;5012370;28;20101;-69
2022/09/11 00:28:54;;;;;;;1.98;0.98;;;;;;;;;;5012312;28;20049;-69
2022/09/11 00:31:24;;;;;;;2.47;1.10;;;;;;;;;;5012796;28;20054;-69
2022/09/11 00:33:51;;;;;;;2.75;0.90;;;;;;;;;;5012692;28;20050;-69
2022/09/11 00:36:20;;;;;;;3.92;1.52;;;;;;;;;;5012423;28;20085;-69
2022/09/11 00:38:47;;;;;;;2.35;0.98;;;;;;;;;;5010969;28;20570;-69
2022/09/11 00:41:17;;;;;;;3.65;1.10;;;;;;;;;;5012225;28;20076;-69
2022/09/11 00:43:50;;;;;;;2.05;1.30;;;;;;;;;;5012763;28;20108;-69
2022/09/11 00:46:16;;;;;;;2.20;1.35;;;;;;;;;;5012424;28;20058;-69
2022/09/11 00:48:43;;;;;;;4.20;1.38;;;;;;;;;;5012147;28;20194;-69
2022/09/11 00:51:10;;;;;;;2.22;1.15;;;;;;;;;;4994806;28;20123;-69
2022/09/11 00:53:36;;;;;;;3.17;1.25;;;;;;;;;;5011210;28;20108;-69
2022/09/11 00:56:05;;;;;;;2.20;0.85;;;;;;;;;;4994904;28;20050;-70
2022/09/11 00:58:35;;;;;;;1.65;1.00;;;;;;;;;;4978849;28;20042;-69
2022/09/11 01:01:02;;;;;;;3.15;1.20;;;;;;;;;;5011293;28;20053;-69
2022/09/11 01:03:30;;;;;;;3.40;1.00;;;;;;;;;;5011088;28;20497;-69
2022/09/11 01:05:57;;;;;;;2.60;0.90;;;;;;;;;;5012433;28;20058;-69
2022/09/11 01:08:24;;;;;;;3.53;0.90;;;;;;;;;;4994321;28;20493;-68
2022/09/11 01:11:09;;;;;;;1.35;0.77;;;;;;;;;;5012210;28;20075;-68
2022/09/11 01:13:56;;;;;;;3.90;1.10;;;;;;;;;;5015824;28;20057;-69
2022/09/11 01:16:34;;;;;;;1.27;0.85;;;;;;;;;;4999274;28;20085;-69
2022/09/11 01:19:22;;;;;;;1.67;0.90;;;;;;;;;;4998522;28;20077;-68
2022/09/11 01:22:19;;;;;;;1.02;0.77;;;;;;;;;;4999708;28;20053;-69
2022/09/11 01:25:14;;;;;;;1.92;0.82;;;;;;;;;;5015676;28;20057;-69
2022/09/11 01:27:49;;;;;;;2.47;1.25;;;;;;;;;;5016033;28;20108;-69
2022/09/11 01:30:20;;;;;;;1.75;1.20;;;;;;;;;;5014364;28;20081;-68
2022/09/11 01:32:53;;;;;;;3.13;1.20;;;;;;;;;;4998721;28;20089;-68
2022/09/11 01:35:24;;;;;;;1.20;0.80;;;;;;;;;;5015446;28;20222;-68
2022/09/11 01:37:56;;;;;;;3.45;1.02;;;;;;;;;;4982372;28;20560;-68
2022/09/11 01:40:35;;;;;;;3.00;1.10;;;;;;;;;;4998103;28;20136;-68
2022/09/11 01:43:05;;;;;;;1.85;0.98;;;;;;;;;;4998785;28;20050;-68
2022/09/11 01:45:36;;;;;;;1.23;1.15;;;;;;;;;;5014066;28;20057;-68
2022/09/11 01:48:02;;;;;;;1.70;0.90;;;;;;;;;;4997829;28;20049;-68
2022/09/11 01:50:29;;;;;;;3.95;1.17;;;;;;;;;;5013862;28;20046;-68
2022/09/11 01:52:59;;;;;;;2.65;1.02;;;;;;;;;;4997845;28;20491;-68
2022/09/11 01:55:43;;;;;;;3.13;1.30;;;;;;;;;;4997957;28;20498;-69
2022/09/11 01:58:16;;;;;;;1.70;1.00;;;;;;;;;;4999912;28;20107;-68
2022/09/11 02:00:45;;;;;;;1.60;1.00;;;;;;;;;;4998456;28;20124;-68
2022/09/11 02:03:36;;;;;;;2.35;1.52;;;;;;;;;;5013948;28;20057;-68
2022/09/11 02:06:12;;;;;;;2.17;1.27;;;;;;;;;;5000401;28;20568;-68
2022/09/11 02:08:50;;;;;;;1.73;1.17;;;;;;;;;;4997759;28;20129;-68
2022/09/11 02:11:18;;;;;;;4.00;1.33;;;;;;;;;;4998089;28;20576;-68
2022/09/11 02:13:48;;;;;;;5.25;1.73;;;;;;;;;;4981660;28;20132;-68
2022/09/11 02:16:49;;;;;;;3.45;1.15;;;;;;;;;;4997381;28;20049;-68
2022/09/11 02:19:22;;;;;;;1.92;1.42;;;;;;;;;;5014672;28;20058;-68
2022/09/11 02:21:49;;;;;;;3.08;1.60;;;;;;;;;;4997065;28;20444;-68
2022/09/11 02:24:16;;;;;;;2.30;1.60;;;;;;;;;;4997110;28;20132;-68
2022/09/11 02:26:46;;;;;;;3.72;1.63;;;;;;;;;;4996861;28;20133;-68
2022/09/11 02:29:13;;;;;;;3.00;2.00;;;;;;;;;;4996771;28;20129;-68
2022/09/11 02:31:40;;;;;;;3.95;1.30;;;;;;;;;;5012881;28;20092;-68
2022/09/11 02:34:09;;;;;;;1.38;1.20;;;;;;;;;;4997012;28;20140;-68
2022/09/11 02:37:02;;;;;;;5.53;1.77;;;;;;;;;;5013210;28;20129;-68
2022/09/11 02:39:47;;;;;;;2.60;1.50;;;;;;;;;;4998016;28;20116;-68
2022/09/11 02:42:26;;;;;;;6.72;2.30;;;;;;;;;;5014721;28;20045;-68
2022/09/11 02:45:05;;;;;;;2.95;1.67;;;;;;;;;;5014135;28;20520;-69
2022/09/11 02:47:53;;;;;;;2.80;1.60;;;;;;;;;;5014289;28;20468;-69
2022/09/11 02:50:35;;;;;;;3.25;1.73;;;;;;;;;;5013791;28;20099;-69
2022/09/11 02:53:09;;;;;;;2.58;1.45;;;;;;;;;;5014022;28;20116;-69
2022/09/11 02:56:00;;;;;;;3.20;1.98;;;;;;;;;;4997563;28;20196;-69
2022/09/11 02:58:32;;;;;;;4.07;1.60;;;;;;;;;;4996437;28;20485;-68
2022/09/11 03:00:59;;;;;;;2.60;1.85;;;;;;;;;;4996847;28;20046;-68
2022/09/11 03:03:26;;;;;;;3.58;1.92;;;;;;;;;;4996634;28;20046;-67
2022/09/11 03:05:53;;;;;;;3.67;2.17;;;;;;;;;;4996683;28;20078;-68
2022/09/11 03:08:20;;;;;;;3.40;1.95;;;;;;;;;;4996261;28;20076;-68
2022/09/11 03:10:48;;;;;;;3.22;2.08;;;;;;;;;;5013645;28;20088;-68
2022/09/11 03:13:15;;;;;;;3.00;2.33;;;;;;;;;;5013594;28;20100;-69
2022/09/11 03:15:45;;;;;;;6.55;2.42;;;;;;;;;;5014038;28;20488;-69
2022/09/11 03:18:14;;;;;;;3.08;2.10;;;;;;;;;;5013257;28;20089;-68
2022/09/11 03:20:48;;;;;;;5.18;2.83;;;;;;;;;;5013502;28;20181;-68
2022/09/11 03:23:15;;;;;;;6.63;2.35;;;;;;;;;;5013430;28;20092;-68
2022/09/11 03:25:41;;;;;;;3.40;2.20;;;;;;;;;;5013477;28;20512;-68
2022/09/11 03:28:08;;;;;;;4.22;3.00;;;;;;;;;;5013594;28;20053;-68
2022/09/11 03:30:35;;;;;;;8.48;2.88;;;;;;;;;;5013422;28;20077;-68
2022/09/11 03:33:01;;;;;;;2.72;2.53;;;;;;;;;;5013371;28;20111;-68
2022/09/11 03:35:28;;;;;;;3.70;2.72;;;;;;;;;;5012776;28;20081;-68
2022/09/11 03:37:54;;;;;;;3.25;2.80;;;;;;;;;;5011982;28;20081;-68
2022/09/11 03:40:21;;;;;;;4.50;2.60;;;;;;;;;;4995553;28;20136;-68
2022/09/11 03:42:48;;;;;;;5.88;2.63;;;;;;;;;;5013060;28;20062;-68
2022/09/11 03:45:14;;;;;;;5.70;3.30;;;;;;;;;;5013475;28;20083;-68
2022/09/11 03:47:41;;;;;;;3.10;2.85;;;;;;;;;;5013175;28;20096;-68
2022/09/11 03:50:08;;;;;;;6.35;3.30;;;;;;;;;;5012343;28;20555;-68
2022/09/11 03:52:35;;;;;;;4.93;2.67;;;;;;;;;;5013219;28;20472;-68
2022/09/11 03:55:03;;;;;;;4.63;3.03;;;;;;;;;;5012774;28;20072;-68
2022/09/11 03:57:32;;;;;;;4.25;3.33;;;;;;;;;;5013160;28;20054;-68
2022/09/11 04:00:00;;;;;;;4.80;3.03;;;;;;;;;;5012958;28;20128;-68
2022/09/11 04:02:26;;;;;;;4.95;3.05;;;;;;;;;;5012989;28;20125;-68
2022/09/11 04:04:53;;;;;;;3.95;3.20;;;;;;;;;;5012834;28;20096;-68
2022/09/11 04:07:20;;;;;;;6.68;3.40;;;;;;;;;;5012822;28;20153;-68
2022/09/11 04:09:46;;;;;;;4.60;3.35;;;;;;;;;;5012778;28;20084;-68
2022/09/11 04:12:13;;;;;;;4.82;3.58;;;;;;;;;;5012842;28;20085;-68
2022/09/11 04:14:39;;;;;;;3.65;3.35;;;;;;;;;;5012636;28;20054;-68
2022/09/11 04:17:07;;;;;;;4.15;3.05;;;;;;;;;;5012718;28;20080;-68
2022/09/11 04:19:34;;;;;;;3.58;3.28;;;;;;;;;;5012555;28;20124;-68
2022/09/11 04:22:00;;;;;;;4.00;3.42;;;;;;;;;;5012435;28;20045;-68
2022/09/11 04:24:27;;;;;;;4.85;3.83;;;;;;;;;;5011506;28;20086;-68
2022/09/11 04:26:54;;;;;;;6.47;3.33;;;;;;;;;;5012744;28;20081;-68
2022/09/11 04:29:26;;;;;;;4.20;3.30;;;;;;;;;;5012349;28;20072;-68
2022/09/11 04:31:54;;;;;;;3.47;3.00;;;;;;;;;;5012631;28;20050;-68
2022/09/11 04:34:21;;;;;;;4.90;3.28;;;;;;;;;;5012518;28;20054;-68
2022/09/11 04:36:48;;;;;;;5.22;3.40;;;;;;;;;;5011495;28;20136;-68
2022/09/11 04:39:15;;;;;;;5.07;3.53;;;;;;;;;;5012554;28;20050;-68
2022/09/11 04:41:43;;;;;;;5.03;3.65;;;;;;;;;;5012470;28;20120;-68
2022/09/11 04:44:09;;;;;;;7.90;4.35;;;;;;;;;;5012264;28;20112;-68
2022/09/11 04:46:36;;;;;;;6.45;4.25;;;;;;;;;;5013843;28;20054;-68
2022/09/11 04:49:02;;;;;;;4.65;3.72;;;;;;;;;;5014662;28;20050;-68
2022/09/11 04:51:31;;;;;;;7.03;4.13;;;;;;;;;;5016212;28;20053;-68
2022/09/11 04:53:58;;;;;;;4.53;3.90;;;;;;;;;;5016292;28;20370;-68
2022/09/11 04:56:29;;;;;;;5.55;4.20;;;;;;;;;;5016525;28;20050;-68
2022/09/11 04:58:58;;;;;;;4.32;3.92;;;;;;;;;;5016257;28;20476;-68
2022/09/11 05:01:25;;;;;;;7.80;4.15;;;;;;;;;;5016224;28;20053;-68
2022/09/11 05:03:52;;;;;;;7.03;3.90;;;;;;;;;;5016061;28;20420;-68
2022/09/11 05:06:19;;;;;;;6.95;4.68;;;;;;;;;;5015173;28;20586;-68
2022/09/11 05:08:45;;;;;;;5.72;4.43;;;;;;;;;;5015799;28;20129;-68
2022/09/11 05:11:15;;;;;;;5.13;4.40;;;;;;;;;;5015870;28;20049;-68
2022/09/11 05:13:42;;;;;;;7.85;4.53;;;;;;;;;;5015903;28;20084;-68
2022/09/11 05:16:10;;;;;;;7.50;4.88;;;;;;;;;;4998405;28;20512;-68
2022/09/11 05:18:38;;;;;;;9.10;5.00;;;;;;;;;;5015549;28;20057;-68
2022/09/11 05:21:12;;;;;;;6.43;4.50;;;;;;;;;;4998624;28;20505;-68
2022/09/11 05:23:39;;;;;;;6.38;4.90;;;;;;;;;;5016033;28;20050;-68
2022/09/11 05:26:12;;;;;;;6.38;5.07;;;;;;;;;;5015814;28;20057;-68
2022/09/11 05:28:39;;;;;;;5.88;5.20;;;;;;;;;;5014467;28;20057;-68
2022/09/11 05:31:16;;;;;;;5.03;4.30;;;;;;;;;;5015683;28;20430;-69
2022/09/11 05:33:43;;;;;;;6.65;4.60;;;;;;;;;;5015566;28;20140;-69
2022/09/11 05:36:11;;;;;;;7.28;4.63;;;;;;;;;;5015749;28;20049;-69
2022/09/11 05:38:38;;;;;;;5.68;5.05;;;;;;;;;;5015306;28;20081;-69
2022/09/11 05:41:06;;;;;;;5.13;4.60;;;;;;;;;;4998101;28;20392;-69
2022/09/11 05:43:33;;;;;;;6.70;4.90;;;;;;;;;;5015531;28;20085;-69
2022/09/11 05:45:59;;;;;;;6.07;4.65;;;;;;;;;;5015575;28;20073;-69
2022/09/11 05:48:27;;;;;;;7.03;5.03;;;;;;;;;;5015169;28;20050;-69
2022/09/11 05:51:02;;;;;;;6.40;5.07;;;;;;;;;;5015700;28;20046;-68
2022/09/11 05:53:32;;;;;;;5.40;4.65;;;;;;;;;;5015285;28;20140;-68
2022/09/11 05:56:11;;;;;;;7.25;4.70;;;;;;;;;;5015239;28;20101;-68
2022/09/11 05:58:37;;;;;;;8.90;5.10;;;;;;;;;;5014374;28;20493;-69
2022/09/11 06:01:07;;;;;;;5.45;4.47;;;;;;;;;;5015254;28;20045;-68
2022/09/11 06:03:34;;;;;;;5.88;4.70;;;;;;;;;;5015131;28;20050;-68
2022/09/11 06:06:03;;;;;;;5.03;4.07;;;;;;;;;;5015129;28;20088;-68
2022/09/11 06:08:29;;;;;;;5.97;4.80;;;;;;;;;;5014686;28;20077;-68
2022/09/11 06:10:57;;;;;;;7.85;4.50;;;;;;;;;;4997472;28;20137;-68
2022/09/11 06:13:28;;;;;;;9.93;4.40;;;;;;;;;;5014920;28;20050;-68
2022/09/11 06:15:55;;;;;;;5.38;4.88;;;;;;;;;;5015001;28;20073;-68
2022/09/11 06:18:21;;;;;;;7.43;5.10;;;;;;;;;;5015113;28;20053;-68
2022/09/11 06:20:59;;;;;;;7.90;5.03;;;;;;;;;;5014542;28;20073;-68
2022/09/11 06:23:26;;;;;;;7.90;5.20;;;;;;;;;;5014668;28;20046;-68
2022/09/11 06:25:53;;;;;;;8.93;5.55;;;;;;;;;;5014792;28;20579;-69
2022/09/11 06:28:21;;;;;;;7.25;5.60;;;;;;;;;;5014412;28;20464;-68
2022/09/11 06:30:51;;;;;;;9.95;5.85;;;;;;;;;;5014223;28;20330;-69
2022/09/11 06:33:19;;;;;;;8.10;6.03;;;;;;;;;;5014373;28;20054;-69
2022/09/11 06:36:12;;;;;;;6.18;5.07;;;;;;;;;;5014367;28;20089;-69
2022/09/11 06:38:38;;;;;;;7.15;5.55;;;;;;;;;;5014393;28;20053;-68
2022/09/11 06:41:10;;;;;;;8.13;5.60;;;;;;;;;;5014862;28;20109;-69
2022/09/11 06:43:37;;;;;;;6.95;5.90;;;;;;;;;;5014216;28;20440;-69
2022/09/11 06:46:05;;;;;;;6.13;5.35;;;;;;;;;;5014134;28;20598;-69
2022/09/11 06:48:32;;;;;;;5.75;5.15;;;;;;;;;;5014289;28;20073;-68
2022/09/11 06:51:02;;;;;;;7.15;6.07;;;;;;;;;;5014264;28;20116;-68
2022/09/11 06:53:29;;;;;;;8.05;5.68;;;;;;;;;;5014132;28;20057;-69
2022/09/11 06:56:03;;;;;;;6.75;6.05;;;;;;;;;;5014003;28;20054;-68
2022/09/11 06:58:30;;;;;;;6.28;4.60;;;;;;;;;;5013905;28;20099;-68
2022/09/11 07:01:11;;;;;;;6.85;6.05;;;;;;;;;;5014039;28;20076;-68
2022/09/11 07:03:40;;;;;;;6.68;5.85;;;;;;;;;;5014376;28;20054;-68
2022/09/11 07:06:06;;;;;;;7.05;6.13;;;;;;;;;;4996955;28;20089;-68
2022/09/11 07:08:33;;;;;;;7.57;6.53;;;;;;;;;;5012955;28;20472;-68
2022/09/11 07:11:05;;;;;;;9.18;6.97;;;;;;;;;;5013578;28;20073;-68
2022/09/11 07:13:33;;;;;;;6.65;5.60;;;;;;;;;;5014088;28;20058;-68
2022/09/11 07:16:07;;;;;;;6.63;5.88;;;;;;;;;;5013864;28;20469;-68
2022/09/11 07:18:39;;;;;;;10.50;6.65;;;;;;;;;;5013546;28;20050;-68
2022/09/11 07:21:20;;;;;;;7.05;6.28;;;;;;;;;;5013455;28;20494;-68
2022/09/11 07:23:53;;;;;;;6.50;5.93;;;;;;;;;;5012767;28;20054;-68
2022/09/11 07:26:21;;;;;;;7.05;6.43;;;;;;;;;;5013957;28;20054;-68
2022/09/11 07:28:50;;;;;;;7.35;5.55;;;;;;;;;;5012220;28;20050;-68
2022/09/11 07:31:24;;;;;;;8.00;5.90;;;;;;;;;;5013276;28;20096;-68
2022/09/11 07:33:51;;;;;;;7.18;6.10;;;;;;;;;;5013331;28;20140;-68
2022/09/11 07:36:25;;;;;;;7.53;5.68;;;;;;;;;;5012418;28;20105;-68
2022/09/11 07:38:52;;;;;;;7.40;5.63;;;;;;;;;;5013259;28;20088;-68
2022/09/11 07:41:20;;;;;;;5.93;5.20;;;;;;;;;;5013063;28;20092;-68
2022/09/11 07:43:51;;;;;;;6.53;5.30;;;;;;;;;;5013081;28;20137;-68
2022/09/11 07:46:18;;;;;;;6.57;5.38;;;;;;;;;;5013280;28;20136;-68
2022/09/11 07:48:44;;;;;;;6.35;5.25;;;;;;;;;;5013142;28;20099;-68
2022/09/11 07:51:13;;;;;;;6.35;4.80;;;;;;;;;;5013095;28;20088;-68
2022/09/11 07:53:42;;;;;;;5.47;4.90;;;;;;;;;;5013106;28;20505;-68
2022/09/11 07:56:11;;;;;;;5.40;4.90;;;;;;;;;;5013033;28;20053;-68
2022/09/11 07:58:39;;;;;;;5.88;4.93;;;;;;;;;;5012721;28;20092;-68
2022/09/11 08:01:08;;;;;;;6.80;4.40;;;;;;;;;;4995690;28;20136;-68
2022/09/11 08:03:35;;;;;;;6.75;5.45;;;;;;;;;;5013141;28;20084;-68
2022/09/11 08:06:05;;;;;;;8.23;5.63;;;;;;;;;;5013330;28;20100;-68
2022/09/11 08:08:32;;;;;;;5.75;4.75;;;;;;;;;;4995835;28;20088;-67
2022/09/11 08:11:03;;;;;;;8.55;5.40;;;;;;;;;;5012646;28;20085;-67
2022/09/11 08:13:30;;;;;;;5.63;5.13;;;;;;;;;;5012800;28;20517;-68
2022/09/11 08:15:56;;;;;;;11.57;5.80;;;;;;;;;;5013196;28;20054;-68
2022/09/11 08:18:23;;;;;;;7.28;5.45;;;;;;;;;;5012903;28;20050;-68
2022/09/11 08:20:50;;;;;;;6.25;5.40;;;;;;;;;;5012526;28;20077;-68
2022/09/11 08:23:16;;;;;;;6.00;5.18;;;;;;;;;;5012885;28;20078;-68
2022/09/11 08:25:43;;;;;;;6.43;5.82;;;;;;;;;;5012565;28;20053;-68
2022/09/11 08:28:10;;;;;;;7.38;5.20;;;;;;;;;;5012368;28;20125;-67
2022/09/11 08:30:39;;;;;;;5.68;5.15;;;;;;;;;;5012567;28;20142;-69
2022/09/11 08:33:08;;;;;;;6.05;5.43;;;;;;;;;;5012708;28;20153;-69
2022/09/11 08:35:34;;;;;;;5.85;5.22;;;;;;;;;;5012550;28;20500;-69
2022/09/11 08:38:02;;;;;;;7.28;4.47;;;;;;;;;;5012316;28;20133;-68
2022/09/11 08:40:29;;;;;;;9.63;6.13;;;;;;;;;;5012844;28;20049;-69
2022/09/11 08:42:58;;;;;;;6.40;5.38;;;;;;;;;;5011268;28;20053;-68
2022/09/11 08:45:26;;;;;;;6.15;5.05;;;;;;;;;;4995331;28;20088;-68
2022/09/11 08:47:54;;;;;;;7.80;5.47;;;;;;;;;;4995436;28;20050;-68
2022/09/11 08:50:27;;;;;;;8.60;5.15;;;;;;;;;;5010965;28;20133;-68
2022/09/11 08:52:54;;;;;;;5.38;4.60;;;;;;;;;;4995293;28;20081;-68
2022/09/11 08:55:59;;;;;;;5.05;4.55;;;;;;;;;;5012285;28;20471;-69
2022/09/11 08:58:28;;;;;;;5.68;4.90;;;;;;;;;;4983916;28;20137;-68
2022/09/11 09:01:06;;;;;;;5.60;4.25;;;;;;;;;;5012277;28;20177;-69
2022/09/11 09:03:42;;;;;;;6.68;4.50;;;;;;;;;;4995647;28;20049;-68
2022/09/11 09:06:24;;;;;;;9.30;4.07;;;;;;;;;;5012190;28;20553;-69
2022/09/11 09:08:56;;;;;;;8.00;4.90;;;;;;;;;;5012169;28;20474;-68
2022/09/11 09:11:56;;;;;;;4.25;3.80;;;;;;;;;;5011961;28;20042;-69
2022/09/11 09:15:05;;;;;;;7.45;4.38;;;;;;;;;;4996103;28;20096;-68
2022/09/11 09:17:45;;;;;;;5.45;4.80;;;;;;;;;;4913194;29;20052;-68
2022/09/11 09:20:19;;;;;;;5.28;4.78;;;;;;;;;;4913208;29;20104;-68
2022/09/11 09:22:52;;;;;;;10.00;4.32;;;;;;;;;;4975772;28;20413;-68
2022/09/11 09:25:22;;;;;;;9.25;6.00;;;;;;;;;;5010666;28;20038;-68
2022/09/11 09:27:52;;;;;;;5.65;5.10;;;;;;;;;;5016365;28;20056;-68
2022/09/11 09:30:26;;;;;;;6.60;4.70;;;;;;;;;;4994754;28;20082;-68
2022/09/11 09:33:32;;;;;;;6.78;4.40;;;;;;;;;;4997271;28;20092;-68
2022/09/11 09:36:11;;;;;;;4.30;3.90;;;;;;;;;;5005161;28;20050;-68
2022/09/11 09:38:38;;;;;;;3.65;3.33;;;;;;;;;;4998891;28;20140;-68
2022/09/11 09:41:13;;;;;;;4.03;3.53;;;;;;;;;;5014242;28;20516;-68
2022/09/11 09:43:58;;;;;;;5.93;3.70;;;;;;;;;;5015966;28;20116;-69
2022/09/11 09:46:43;;;;;;;5.40;3.70;;;;;;;;;;5015513;28;20132;-68
2022/09/11 09:49:18;;;;;;;4.00;3.60;;;;;;;;;;5015116;28;20050;-68
2022/09/11 09:51:44;;;;;;;3.97;3.58;;;;;;;;;;4997904;28;20046;-68
2022/09/11 09:54:14;;;;;;;3.60;3.30;;;;;;;;;;5015443;28;20650;-68
2022/09/11 09:56:42;;;;;;;3.65;3.08;;;;;;;;;;5014267;28;20092;-68
2022/09/11 09:59:17;;;;;;;3.78;3.10;;;;;;;;;;4997795;28;20131;-68
2022/09/11 10:01:45;;;;;;;5.05;3.20;;;;;;;;;;5014215;28;20136;-68
2022/09/11 10:04:16;;;;;;;4.32;3.92;;;;;;;;;;5015422;28;20050;-68
2022/09/11 10:06:48;;;;;;;3.63;3.13;;;;;;;;;;5015208;28;20107;-68
2022/09/11 10:09:22;;;;;;;3.58;3.13;;;;;;;;;;5013687;28;20488;-68
2022/09/11 10:11:55;;;;;;;4.15;3.63;;;;;;;;;;5015091;28;20081;-68
2022/09/11 10:14:21;;;;;;;;;;;;;;;;;;4998268;28;20082;-68
2022/09/11 10:17:37;;;;;;;3.47;3.17;;;;;;;;;;5015127;28;19968;-68
2022/09/11 10:20:20;;;;;;;4.00;3.70;;;;;;;;;;5013441;28;20481;-68
2022/09/11 10:22:48;;;;;;;5.40;3.95;;;;;;;;;;5014928;28;20567;-68
2022/09/11 10:25:28;;;;;;;5.57;4.35;;;;;;;;;;5014997;28;20054;-68
2022/09/11 10:28:08;;;;;;;4.60;4.20;;;;;;;;;;4997984;28;20520;-68
2022/09/11 10:30:39;;;;;;;5.75;4.30;;;;;;;;;;5013084;28;20082;-68
2022/09/11 10:33:25;;;;;;;4.53;3.95;;;;;;;;;;5013348;28;20060;-69
2022/09/11 10:35:57;;;;;;;6.80;4.68;;;;;;;;;;4998973;28;20046;-68
2022/09/11 10:38:29;;;;;;;5.73;3.93;;;;;;;;;;4997839;28;20092;-68
2022/09/11 10:41:13;;;;;;;5.50;4.90;;;;;;;;;;5014739;28;20073;-67
2022/09/11 10:43:54;;;;;;;6.55;5.10;;;;;;;;;;5014568;28;20050;-67
2022/09/11 10:46:23;;;;;;;4.72;4.32;;;;;;;;;;4997712;28;20409;-68
2022/09/11 10:48:55;;;;;;;3.78;3.30;;;;;;;;;;4996964;28;20120;-68
2022/09/11 10:51:24;;;;;;;5.43;4.13;;;;;;;;;;5014161;28;20100;-68
2022/09/11 10:54:15;;;;;;;5.70;4.80;;;;;;;;;;5013981;28;20612;-68
2022/09/11 10:56:56;;;;;;;4.35;3.95;;;;;;;;;;5014113;28;20417;-68
2022/09/11 10:59:25;;;;;;;4.75;4.07;;;;;;;;;;4996896;28;20116;-68
2022/09/11 11:01:52;;;;;;;5.07;4.60;;;;;;;;;;4996812;28;20493;-68
2022/09/11 11:04:20;;;;;;;6.03;4.40;;;;;;;;;;5014305;28;20066;-69
2022/09/11 11:07:05;;;;;;;5.43;4.30;;;;;;;;;;5014073;28;20050;-68
2022/09/11 11:10:21;;;;;;;4.78;4.00;;;;;;;;;;5013459;28;20054;-68
2022/09/11 11:13:05;;;;;;;4.40;4.00;;;;;;;;;;4991636;28;20053;-68
2022/09/11 11:15:49;;;;;;;3.97;3.63;;;;;;;;;;4996497;28;20416;-68
2022/09/11 11:18:31;;;;;;;4.22;3.60;;;;;;;;;;5013813;28;20178;-68
2022/09/11 11:21:11;;;;;;;5.38;3.97;;;;;;;;;;5013565;28;20096;-68
2022/09/11 11:23:53;;;;;;;5.82;3.70;;;;;;;;;;4997069;28;20417;-69
2022/09/11 11:26:22;;;;;;;4.93;4.18;;;;;;;;;;4997232;28;20124;-68
2022/09/11 11:28:49;;;;;;;4.28;3.40;;;;;;;;;;4996060;28;20551;-69
2022/09/11 11:31:31;;;;;;;4.82;3.40;;;;;;;;;;5013263;28;20054;-68
2022/09/11 11:33:58;;;;;;;4.78;3.30;;;;;;;;;;4997847;28;20133;-68
2022/09/11 11:36:31;;;;;;;4.05;3.47;;;;;;;;;;5013216;28;20057;-69
2022/09/11 11:39:00;;;;;;;3.95;3.55;;;;;;;;;;4996316;28;20444;-68
2022/09/11 11:41:37;;;;;;;4.45;3.80;;;;;;;;;;5012070;28;20096;-69
2022/09/11 11:44:07;;;;;;;5.28;3.67;;;;;;;;;;5012640;28;20108;-69
2022/09/11 11:46:37;;;;;;;5.03;3.92;;;;;;;;;;4996391;28;20085;-69
2022/09/11 11:49:06;;;;;;;5.38;3.63;;;;;;;;;;4995983;28;20490;-69
2022/09/11 11:51:43;;;;;;;3.88;3.50;;;;;;;;;;4996137;28;20042;-68
2022/09/11 11:54:13;;;;;;;4.20;3.80;;;;;;;;;;5011597;28;20085;-68
2022/09/11 11:57:06;;;;;;;4.00;3.70;;;;;;;;;;4995115;28;20046;-68
2022/09/11 11:59:45;;;;;;;4.28;3.88;;;;;;;;;;4995388;28;20096;-68
2022/09/11 12:02:19;;;;;;;3.28;2.97;;;;;;;;;;5012773;28;20050;-68
2022/09/11 12:05:09;;;;;;;4.32;3.47;;;;;;;;;;5011414;28;20409;-68
2022/09/11 12:07:36;;;;;;;3.05;2.70;;;;;;;;;;4979825;28;20089;-68
2022/09/11 12:10:06;;;;;;;4.57;3.13;;;;;;;;;;5011480;28;20141;-68
2022/09/11 12:12:35;;;;;;;3.00;2.70;;;;;;;;;;4995268;28;20531;-68
2022/09/11 12:15:06;;;;;;;3.47;3.00;;;;;;;;;;5012476;28;20053;-69
2022/09/11 12:17:34;;;;;;;3.20;2.85;;;;;;;;;;4995491;28;20464;-68
2022/09/11 12:20:10;;;;;;;5.20;3.40;;;;;;;;;;5011070;28;20592;-68
2022/09/11 12:22:38;;;;;;;3.42;3.10;;;;;;;;;;5012523;28;20085;-68
2022/09/11 12:25:26;;;;;;;3.17;2.88;;;;;;;;;;5012470;28;20129;-68
2022/09/11 12:28:13;;;;;;;3.25;2.95;;;;;;;;;;5012444;28;20488;-68
2022/09/11 12:31:06;;;;;;;3.67;3.00;;;;;;;;;;4987645;28;20053;-69
2022/09/11 12:33:46;;;;;;;3.10;2.67;;;;;;;;;;4995479;28;20065;-68
2022/09/11 12:36:16;;;;;;;3.83;3.00;;;;;;;;;;5012646;28;20077;-69
2022/09/11 12:38:47;;;;;;;2.72;2.47;;;;;;;;;;5012511;28;20108;-68
2022/09/11 12:41:36;;;;;;;2.78;2.30;;;;;;;;;;5012391;28;20088;-68
2022/09/11 12:44:03;;;;;;;3.10;2.47;;;;;;;;;;5012686;28;20088;-68
2022/09/11 12:46:30;;;;;;;3.65;2.35;;;;;;;;;;5012203;28;20368;-68
2022/09/11 12:48:57;;;;;;;3.92;2.88;;;;;;;;;;5012172;28;20394;-68
2022/09/11 12:51:54;;;;;;;6.38;3.08;;;;;;;;;;5011157;28;20475;-68
2022/09/11 12:54:38;;;;;;;6.00;2.88;;;;;;;;;;4995275;28;20509;-69
2022/09/11 12:57:21;;;;;;;3.42;3.13;;;;;;;;;;4996339;28;20053;-68
2022/09/11 12:59:52;;;;;;;3.85;3.53;;;;;;;;;;4996444;28;20082;-68
2022/09/11 13:02:34;;;;;;;3.65;2.80;;;;;;;;;;5011014;28;20128;-68
2022/09/11 13:05:06;;;;;;;3.53;3.23;;;;;;;;;;5012011;28;20184;-68
2022/09/11 13:07:40;;;;;;;5.95;3.50;;;;;;;;;;4996348;28;20309;-68
2022/09/11 13:10:08;;;;;;;3.75;3.22;;;;;;;;;;5014547;28;20521;-69
2022/09/11 13:12:48;;;;;;;4.35;3.40;;;;;;;;;;5014775;28;20042;-68
2022/09/11 13:15:44;;;;;;;3.13;2.92;;;;;;;;;;4998589;28;20576;-69
2022/09/11 13:18:31;;;;;;;3.92;3.40;;;;;;;;;;5010019;28;20049;-68
2022/09/11 13:21:00;;;;;;;3.75;3.38;;;;;;;;;;5015606;28;20567;-69
2022/09/11 13:23:27;;;;;;;3.38;3.08;;;;;;;;;;5015674;28;20054;-69
2022/09/11 13:25:55;;;;;;;5.68;3.63;;;;;;;;;;5016081;28;20065;-69
2022/09/11 13:28:21;;;;;;;4.03;3.40;;;;;;;;;;4998131;28;20088;-69
2022/09/11 13:30:55;;;;;;;4.03;3.72;;;;;;;;;;4998931;28;20077;-69
2022/09/11 13:33:27;;;;;;;4.38;3.92;;;;;;;;;;5015395;28;20060;-68
2022/09/11 13:35:58;;;;;;;4.53;3.72;;;;;;;;;;5015471;28;20085;-69
2022/09/11 13:38:29;;;;;;;5.10;3.60;;;;;;;;;;5015524;28;20061;-68
2022/09/11 13:41:05;;;;;;;4.30;3.90;;;;;;;;;;4998343;28;20054;-68
2022/09/11 13:43:46;;;;;;;3.67;3.28;;;;;;;;;;5015512;28;20157;-68
2022/09/11 13:46:15;;;;;;;3.60;3.30;;;;;;;;;;4999208;28;20049;-69
2022/09/11 13:48:43;;;;;;;3.53;3.22;;;;;;;;;;5015228;28;20582;-69
2022/09/11 13:51:13;;;;;;;5.85;3.83;;;;;;;;;;5013840;28;20501;-69
2022/09/11 13:53:41;;;;;;;4.13;3.83;;;;;;;;;;4998271;28;20461;-68
2022/09/11 13:56:49;;;;;;;4.78;3.70;;;;;;;;;;4998312;28;20053;-69
2022/09/11 13:59:38;;;;;;;4.53;3.85;;;;;;;;;;5014811;28;20045;-69
2022/09/11 14:02:26;;;;;;;3.95;3.50;;;;;;;;;;5015279;28;20057;-70
2022/09/11 14:04:59;;;;;;;3.65;3.35;;;;;;;;;;4990921;28;20045;-69
2022/09/11 14:07:26;;;;;;;3.42;2.83;;;;;;;;;;4998244;28;20137;-69
2022/09/11 14:10:04;;;;;;;4.72;2.80;;;;;;;;;;5014766;28;20050;-69
2022/09/11 14:12:31;;;;;;;3.65;3.35;;;;;;;;;;5014721;28;20563;-69
2022/09/11 14:15:05;;;;;;;3.47;2.92;;;;;;;;;;5013688;28;20054;-69
2022/09/11 14:17:32;;;;;;;3.63;3.28;;;;;;;;;;4998366;28;20058;-69
2022/09/11 14:19:59;;;;;;;2.90;2.70;;;;;;;;;;4996879;28;20093;-69
2022/09/11 14:22:29;;;;;;;2.70;2.50;;;;;;;;;;5014603;28;20088;-69
2022/09/11 14:25:22;;;;;;;5.07;3.10;;;;;;;;;;4997609;28;20057;-69
2022/09/11 14:27:49;;;;;;;3.50;3.20;;;;;;;;;;5014510;28;20088;-69
2022/09/11 14:30:31;;;;;;;3.33;3.13;;;;;;;;;;5013082;28;20077;-69
2022/09/11 14:33:23;;;;;;;3.30;3.00;;;;;;;;;;5014611;28;20050;-69
2022/09/11 14:35:52;;;;;;;3.33;3.03;;;;;;;;;;5014615;28;20137;-69
2022/09/11 14:38:19;;;;;;;3.38;3.08;;;;;;;;;;4997360;28;20270;-69
2022/09/11 14:40:54;;;;;;;3.63;2.88;;;;;;;;;;5014529;28;20050;-69
2022/09/11 14:43:32;;;;;;;2.80;2.53;;;;;;;;;;5013177;28;20064;-69
2022/09/11 14:45:59;;;;;;;3.72;2.65;;;;;;;;;;4998121;28;20056;-69
2022/09/11 14:48:27;;;;;;;2.83;2.53;;;;;;;;;;5014362;28;20056;-69
2022/09/11 14:50:54;;;;;;;2.90;2.03;;;;;;;;;;5013812;28;20050;-69
2022/09/11 14:53:33;;;;;;;2.85;2.58;;;;;;;;;;5012755;28;20148;-69
2022/09/11 14:56:01;;;;;;;3.28;2.97;;;;;;;;;;5014560;28;20089;-69
2022/09/11 14:58:28;;;;;;;2.80;2.55;;;;;;;;;;4996624;28;20560;-69
2022/09/11 15:00:55;;;;;;;4.68;2.75;;;;;;;;;;5013883;28;20049;-69
2022/09/11 15:03:23;;;;;;;5.60;3.70;;;;;;;;;;5013918;28;20089;-69
2022/09/11 15:05:56;;;;;;;3.00;2.80;;;;;;;;;;5013849;28;20111;-69
2022/09/11 15:08:23;;;;;;;3.35;3.05;;;;;;;;;;5012801;28;20088;-69
2022/09/11 15:10:52;;;;;;;3.22;3.03;;;;;;;;;;5013834;28;20096;-69
2022/09/11 15:13:19;;;;;;;3.20;2.60;;;;;;;;;;5013761;28;20050;-69
2022/09/11 15:15:46;;;;;;;3.97;3.38;;;;;;;;;;5012600;28;20112;-69